Time;durP1;ratioP1;P1;durP2;ratioP2;P2;SDS_P1;SDS_P2;PMS_P1;PMS_P2;Temp;Humidity;BMP_temperature;BMP_pressure;BME280_temperature;BME280_humidity;BME280_pressure;Samples;Min_cycle;Max_cycle;Signal;HPM_P1;HPM_P2
2022/11/11 00:01:58;;;;;;;;;;;9.60;99.90;;;;;;5051262;28;19928;-77
2022/11/11 00:04:23;;;;;;;;;;;9.50;99.90;;;;;;5046107;28;19920;-77
2022/11/11 00:06:49;;;;;;;;;;;9.70;99.90;;;;;;5046087;28;19974;-77
2022/11/11 00:09:14;;;;;;;;;;;9.70;99.90;;;;;;5041309;28;19982;-76
2022/11/11 00:11:39;;;;;;;;;;;9.60;99.90;;;;;;5047066;28;20000;-76
2022/11/11 00:14:05;;;;;;;;;;;9.70;99.90;;;;;;5042951;28;19913;-76
2022/11/11 00:25:04;;;;;;;;;;;9.50;99.90;;;;;;5044687;28;19939;-77
2022/11/11 00:27:28;;;;;;;;;;;9.40;99.90;;;;;;5046357;28;20286;-76
2022/11/11 00:29:54;;;;;;;;;;;9.40;99.90;;;;;;5052811;28;20122;-77
2022/11/11 00:32:22;;;;;;;;;;;9.40;99.90;;;;;;5045973;28;20557;-76
2022/11/11 00:37:35;;;;;;;;;;;9.40;99.90;;;;;;5047583;28;19957;-77
2022/11/11 00:40:00;;;;;;;;;;;9.30;99.90;;;;;;5047358;28;19960;-76
2022/11/11 00:42:26;;;;;;;;;;;9.30;99.90;;;;;;5051693;28;19912;-76
2022/11/11 00:44:52;;;;;;;;;;;9.30;99.90;;;;;;5050097;28;19924;-76
2022/11/11 00:52:47;;;;;;;;;;;9.30;99.90;;;;;;5053571;28;20046;-77
2022/11/11 00:55:13;;;;;;;;;;;9.20;99.90;;;;;;5043291;28;20015;-76
2022/11/11 00:57:39;;;;;;;;;;;9.20;99.90;;;;;;5051654;28;19912;-77
2022/11/11 01:00:04;;;;;;;;;;;9.20;99.90;;;;;;5044222;28;19913;-77
2022/11/11 01:02:30;;;;;;;;;;;9.30;99.90;;;;;;5048405;28;19920;-76
2022/11/11 01:04:55;;;;;;;;;;;9.20;99.90;;;;;;5045182;28;19936;-77
2022/11/11 01:07:21;;;;;;;;;;;9.10;99.90;;;;;;5053161;28;20015;-76
2022/11/11 01:09:46;;;;;;;;;;;9.10;99.90;;;;;;5052785;28;19920;-76
2022/11/11 01:12:12;;;;;;;;;;;9.20;99.90;;;;;;5052586;28;19951;-76
2022/11/11 01:14:37;;;;;;;;;;;9.30;99.90;;;;;;5053006;28;19916;-76
2022/11/11 01:17:05;;;;;;;;;;;9.30;99.90;;;;;;5045670;28;19919;-76
2022/11/11 01:19:30;;;;;;;;;;;9.30;99.90;;;;;;5044697;28;19921;-77
2022/11/11 01:21:56;;;;;;;;;;;9.40;99.90;;;;;;5046025;28;20291;-77
2022/11/11 01:24:21;;;;;;;;;;;9.40;99.90;;;;;;5054255;28;19917;-77
2022/11/11 01:26:46;;;;;;;;;;;9.30;99.90;;;;;;5044562;28;19913;-78
2022/11/11 01:29:12;;;;;;;;;;;9.40;99.90;;;;;;5050123;28;19935;-77
2022/11/11 01:31:37;;;;;;;;;;;9.40;99.90;;;;;;5044176;28;19912;-77
2022/11/11 01:34:03;;;;;;;;;;;9.40;99.90;;;;;;5047838;28;19955;-77
2022/11/11 01:36:28;;;;;;;;;;;9.30;99.90;;;;;;5044776;28;20361;-77
2022/11/11 01:38:55;;;;;;;;;;;9.30;99.90;;;;;;5046437;28;19913;-77
2022/11/11 01:41:31;;;;;;;;;;;9.50;99.90;;;;;;5042232;28;19917;-77
2022/11/11 01:43:57;;;;;;;;;;;9.50;99.90;;;;;;5053781;28;19916;-77
2022/11/11 01:46:28;;;;;;;;;;;9.40;99.90;;;;;;5043618;28;19955;-77
2022/11/11 01:49:19;;;;;;;;;;;9.50;99.90;;;;;;5036296;28;19916;-77
2022/11/11 01:51:53;;;;;;;;;;;9.50;99.90;;;;;;5038845;28;20356;-77
2022/11/11 01:54:31;;;;;;;;;;;9.50;99.90;;;;;;5043771;28;19985;-77
2022/11/11 01:57:02;;;;;;;;;;;9.30;99.90;;;;;;5049455;28;19913;-77
2022/11/11 01:59:30;;;;;;;;;;;9.30;99.90;;;;;;5046945;28;19913;-77
2022/11/11 02:01:56;;;;;;;;;;;9.40;99.90;;;;;;5057965;28;19912;-77
2022/11/11 02:07:08;;;;;;;;;;;9.30;99.90;;;;;;5043368;28;20475;-77
2022/11/11 02:09:35;;;;;;;;;;;9.20;99.90;;;;;;5050643;28;20036;-77
2022/11/11 02:14:50;;;;;;;;;;;9.20;99.90;;;;;;5048366;28;20291;-77
2022/11/11 02:17:16;;;;;;;;;;;9.20;99.90;;;;;;5044069;28;20004;-77
2022/11/11 02:19:49;;;;;;;;;;;9.20;99.90;;;;;;5044776;28;20471;-77
2022/11/11 02:22:29;;;;;;;;;;;9.10;99.90;;;;;;5045718;28;20001;-77
2022/11/11 02:24:55;;;;;;;;;;;9.20;99.90;;;;;;5043489;28;19959;-77
2022/11/11 02:27:22;;;;;;;;;;;9.20;99.90;;;;;;5054542;28;19974;-77
2022/11/11 02:29:49;;;;;;;;;;;9.30;99.90;;;;;;5044730;28;19913;-77
2022/11/11 02:32:14;;;;;;;;;;;9.20;99.90;;;;;;5052969;28;20007;-77
2022/11/11 02:34:40;;;;;;;;;;;9.30;99.90;;;;;;5046347;28;20047;-77
2022/11/11 02:37:06;;;;;;;;;;;9.40;99.90;;;;;;5048087;28;19959;-77
2022/11/11 02:39:33;;;;;;;;;;;9.40;99.90;;;;;;5049191;28;20334;-77
2022/11/11 02:41:58;;;;;;;;;;;9.30;99.90;;;;;;5047885;28;20003;-77
2022/11/11 02:44:24;;;;;;;;;;;9.30;99.90;;;;;;5045344;28;20007;-77
2022/11/11 02:46:50;;;;;;;;;;;9.30;99.90;;;;;;5044306;28;19920;-77
2022/11/11 02:49:15;;;;;;;;;;;9.20;99.90;;;;;;5056886;28;19909;-77
2022/11/11 02:51:41;;;;;;;;;;;9.20;99.90;;;;;;5041142;28;19971;-77
2022/11/11 02:54:06;;;;;;;;;;;9.20;99.90;;;;;;5048812;28;19988;-77
2022/11/11 02:59:16;;;;;;;;;;;9.10;99.90;;;;;;5046046;28;19939;-77
2022/11/11 03:01:41;;;;;;;;;;;9.10;99.90;;;;;;5044947;28;19917;-77
2022/11/11 03:04:07;;;;;;;;;;;9.10;99.90;;;;;;5038423;28;20326;-77
2022/11/11 03:06:32;;;;;;;;;;;9.10;99.90;;;;;;5036061;28;19920;-77
2022/11/11 03:08:58;;;;;;;;;;;9.20;99.90;;;;;;5044300;28;20375;-77
2022/11/11 03:11:26;;;;;;;;;;;9.20;99.90;;;;;;5049492;28;19913;-77
2022/11/11 03:13:53;;;;;;;;;;;9.30;99.90;;;;;;5047246;28;19980;-77
2022/11/11 03:19:10;;;;;;;;;;;9.30;99.90;;;;;;5010401;28;19916;-77
2022/11/11 03:21:36;;;;;;;;;;;9.30;99.90;;;;;;5046873;28;22007;-77
2022/11/11 03:24:01;;;;;;;;;;;9.40;99.90;;;;;;5052855;28;19920;-77
2022/11/11 03:26:27;;;;;;;;;;;9.40;99.90;;;;;;5045810;28;19913;-77
2022/11/11 03:28:52;;;;;;;;;;;9.30;99.90;;;;;;5044555;28;20023;-77
2022/11/11 03:31:18;;;;;;;;;;;9.20;99.90;;;;;;5047716;28;19920;-77
2022/11/11 03:33:43;;;;;;;;;;;9.20;99.90;;;;;;5047052;28;19913;-77
2022/11/11 03:36:09;;;;;;;;;;;9.20;99.90;;;;;;5045357;28;20003;-77
2022/11/11 03:38:34;;;;;;;;;;;9.20;99.90;;;;;;5045267;28;20371;-77
2022/11/11 03:41:00;;;;;;;;;;;9.20;99.90;;;;;;5049011;28;19917;-77
2022/11/11 03:43:26;;;;;;;;;;;9.10;99.90;;;;;;5050531;28;19936;-77
2022/11/11 03:45:53;;;;;;;;;;;9.20;99.90;;;;;;5053019;28;19936;-77
2022/11/11 03:48:18;;;;;;;;;;;9.10;99.90;;;;;;5045156;28;19989;-77
2022/11/11 03:50:46;;;;;;;;;;;9.10;99.90;;;;;;5056812;28;19917;-77
2022/11/11 03:53:12;;;;;;;;;;;9.20;99.90;;;;;;5057942;28;19912;-77
2022/11/11 03:55:38;;;;;;;;;;;9.20;99.90;;;;;;5049467;28;20046;-77
2022/11/11 03:58:03;;;;;;;;;;;9.10;99.90;;;;;;5050173;28;20373;-77
2022/11/11 04:00:28;;;;;;;;;;;9.10;99.90;;;;;;5042847;28;19917;-77
2022/11/11 04:11:41;;;;;;;;;;;9.00;99.90;;;;;;5046551;28;20002;-77
2022/11/11 04:16:52;;;;;;;;;;;9.00;99.90;;;;;;5041661;28;19948;-77
2022/11/11 04:22:01;;;;;;;;;;;9.10;99.90;;;;;;5047927;28;20384;-77
2022/11/11 04:27:12;;;;;;;;;;;9.10;99.90;;;;;;5044887;28;20558;-78
2022/11/11 04:29:37;;;;;;;;;;;9.10;99.90;;;;;;5048808;28;19952;-77
2022/11/11 04:34:49;;;;;;;;;;;9.00;99.90;;;;;;5045283;28;20436;-78
2022/11/11 04:37:15;;;;;;;;;;;8.90;99.90;;;;;;5047769;28;19925;-77
2022/11/11 04:42:25;;;;;;;;;;;9.00;99.90;;;;;;5047038;28;19974;-76
2022/11/11 04:47:35;;;;;;;;;;;9.00;99.90;;;;;;5044161;28;19935;-77
2022/11/11 04:50:00;;;;;;;;;;;8.90;99.90;;;;;;5042088;28;20414;-77
2022/11/11 04:52:25;;;;;;;;;;;8.80;99.90;;;;;;5041536;28;19917;-77
2022/11/11 04:57:40;;;;;;;;;;;9.00;99.90;;;;;;5048342;28;19924;-77
2022/11/11 05:00:06;;;;;;;;;;;8.90;99.90;;;;;;5046356;28;19939;-77
2022/11/11 05:05:15;;;;;;;;;;;8.90;99.90;;;;;;5048045;28;19924;-77
2022/11/11 05:10:25;;;;;;;;;;;9.00;99.90;;;;;;5037410;28;20537;-77
2022/11/11 05:12:50;;;;;;;;;;;9.00;99.90;;;;;;5042606;28;20957;-77
2022/11/11 05:26:16;;;;;;;;;;;9.00;99.90;;;;;;5046774;28;19943;-78
2022/11/11 05:28:41;;;;;;;;;;;8.90;99.90;;;;;;5050583;28;20422;-79
2022/11/11 05:31:07;;;;;;;;;;;9.00;99.90;;;;;;5038741;28;19915;-79
2022/11/11 05:33:32;;;;;;;;;;;8.90;99.90;;;;;;5042660;28;20017;-79
2022/11/11 05:35:57;;;;;;;;;;;8.90;99.90;;;;;;5046101;28;19913;-79
2022/11/11 05:38:23;;;;;;;;;;;8.90;99.90;;;;;;5042913;28;19917;-78
2022/11/11 05:40:48;;;;;;;;;;;8.90;99.90;;;;;;5040229;28;20376;-78
2022/11/11 05:43:14;;;;;;;;;;;8.80;99.90;;;;;;5053110;28;19935;-78
2022/11/11 05:45:40;;;;;;;;;;;8.90;99.90;;;;;;5041103;28;19913;-78
2022/11/11 05:48:05;;;;;;;;;;;9.00;99.90;;;;;;5041854;28;20430;-78
2022/11/11 05:50:31;;;;;;;;;;;8.90;99.90;;;;;;5045886;28;20004;-79
2022/11/11 05:52:56;;;;;;;;;;;9.00;99.90;;;;;;5043370;28;19913;-79
2022/11/11 05:55:22;;;;;;;;;;;8.90;99.90;;;;;;5047296;28;19912;-79
2022/11/11 05:57:47;;;;;;;;;;;8.80;99.90;;;;;;5045964;28;19947;-78
2022/11/11 06:00:13;;;;;;;;;;;8.90;99.90;;;;;;5045594;28;19935;-79
2022/11/11 06:02:38;;;;;;;;;;;8.90;99.90;;;;;;5044145;28;19923;-80
2022/11/11 06:05:04;;;;;;;;;;;8.90;99.90;;;;;;5047933;28;19917;-77
2022/11/11 06:07:30;;;;;;;;;;;8.90;99.90;;;;;;5049733;28;19912;-77
2022/11/11 06:10:29;;;;;;;;;;;8.90;99.90;;;;;;5038547;28;20400;-78
2022/11/11 06:13:00;;;;;;;;;;;9.00;99.90;;;;;;5038933;28;19913;-77
2022/11/11 06:15:26;;;;;;;;;;;8.90;99.90;;;;;;5041350;28;19924;-78
2022/11/11 06:17:52;;;;;;;;;;;8.90;99.90;;;;;;5046765;28;19913;-77
2022/11/11 06:20:17;;;;;;;;;;;8.70;99.90;;;;;;5036889;28;19966;-78
2022/11/11 06:22:55;;;;;;;;;;;8.70;99.90;;;;;;5042843;28;19951;-78
2022/11/11 06:28:05;;;;;;;;;;;8.80;99.90;;;;;;5048616;28;19944;-78
2022/11/11 06:30:30;;;;;;;;;;;8.80;99.90;;;;;;5042034;28;19921;-78
2022/11/11 06:32:56;;;;;;;;;;;8.80;99.90;;;;;;5040829;28;19959;-79
2022/11/11 06:35:21;;;;;;;;;;;8.90;99.90;;;;;;5039660;28;19949;-78
2022/11/11 06:37:47;;;;;;;;;;;8.90;99.90;;;;;;5034579;28;19946;-84
2022/11/11 06:40:12;;;;;;;;;;;9.00;99.90;;;;;;5048759;28;19913;-77
2022/11/11 06:42:37;;;;;;;;;;;9.00;99.90;;;;;;5046254;28;20360;-79
2022/11/11 06:45:03;;;;;;;;;;;9.10;99.90;;;;;;5045723;28;19917;-76
2022/11/11 06:47:28;;;;;;;;;;;9.20;99.90;;;;;;5042672;28;19943;-76
2022/11/11 06:49:54;;;;;;;;;;;9.20;99.90;;;;;;5044664;28;19917;-76
2022/11/11 06:52:19;;;;;;;;;;;9.20;99.90;;;;;;5038211;28;19923;-77
2022/11/11 06:54:44;;;;;;;;;;;9.30;99.90;;;;;;5046400;28;19913;-77
2022/11/11 06:57:10;;;;;;;;;;;9.30;99.90;;;;;;5044703;28;20244;-77
2022/11/11 06:59:35;;;;;;;;;;;9.30;99.90;;;;;;5047805;28;19920;-77
2022/11/11 07:02:01;;;;;;;;;;;9.30;99.90;;;;;;5048445;28;19952;-77
2022/11/11 07:04:26;;;;;;;;;;;9.40;99.90;;;;;;5042471;28;19921;-79
2022/11/11 07:06:52;;;;;;;;;;;9.40;99.90;;;;;;5029957;28;20280;-79
2022/11/11 07:09:22;;;;;;;;;;;9.40;99.90;;;;;;5033999;28;19923;-78
2022/11/11 07:11:47;;;;;;;;;;;9.40;99.90;;;;;;5035688;28;19919;-76
2022/11/11 07:14:13;;;;;;;;;;;9.50;99.90;;;;;;5034265;28;19912;-77
2022/11/11 07:16:38;;;;;;;;;;;9.60;99.90;;;;;;5035751;28;19963;-78
2022/11/11 07:19:04;;;;;;;;;;;9.60;99.90;;;;;;5040239;28;19913;-77
2022/11/11 07:21:29;;;;;;;;;;;9.60;99.90;;;;;;5020043;28;20409;-78
2022/11/11 07:23:55;;;;;;;;;;;9.70;99.90;;;;;;5035766;28;20393;-77
2022/11/11 07:26:20;;;;;;;;;;;9.70;99.90;;;;;;5036281;28;20379;-77
2022/11/11 07:28:45;;;;;;;;;;;9.70;99.90;;;;;;5037537;28;19917;-78
2022/11/11 07:31:11;;;;;;;;;;;9.80;99.90;;;;;;5038358;28;19920;-78
2022/11/11 07:33:36;;;;;;;;;;;9.90;99.90;;;;;;5036657;28;19917;-78
2022/11/11 07:36:05;;;;;;;;;;;10.00;99.90;;;;;;5036974;28;19920;-78
2022/11/11 07:38:30;;;;;;;;;;;10.10;99.90;;;;;;5035840;28;19913;-78
2022/11/11 07:40:56;;;;;;;;;;;10.10;99.90;;;;;;5036702;28;19928;-77
2022/11/11 07:43:23;;;;;;;;;;;10.00;99.90;;;;;;5017126;28;19929;-78
2022/11/11 07:45:48;;;;;;;;;;;10.10;99.90;;;;;;5035659;28;19982;-78
2022/11/11 07:48:14;;;;;;;;;;;10.00;99.90;;;;;;5037402;28;20507;-78
2022/11/11 07:50:39;;;;;;;;;;;10.10;99.90;;;;;;5036032;28;19913;-77
2022/11/11 07:53:04;;;;;;;;;;;10.10;99.90;;;;;;5035101;28;19925;-77
2022/11/11 07:55:30;;;;;;;;;;;10.10;99.90;;;;;;5034576;28;19920;-79
2022/11/11 07:57:56;;;;;;;;;;;10.20;99.90;;;;;;5037806;28;19913;-78
2022/11/11 08:00:22;;;;;;;;;;;10.30;99.90;;;;;;5039903;28;19912;-78
2022/11/11 08:02:48;;;;;;;;;;;10.20;99.90;;;;;;5042466;28;20572;-78
2022/11/11 08:05:13;;;;;;;;;;;10.50;99.90;;;;;;5041486;28;19928;-80
2022/11/11 08:07:39;;;;;;;;;;;10.60;99.90;;;;;;5039276;28;19912;-78
2022/11/11 08:10:04;;;;;;;;;;;10.60;99.90;;;;;;5047032;28;19936;-77
2022/11/11 08:15:14;;;;;;;;;;;10.80;99.90;;;;;;5043388;28;19916;-77
2022/11/11 08:17:39;;;;;;;;;;;10.80;99.90;;;;;;5044632;28;20844;-76
2022/11/11 08:20:05;;;;;;;;;;;10.80;99.90;;;;;;5040552;28;19917;-76
2022/11/11 08:22:35;;;;;;;;;;;10.90;99.90;;;;;;5031382;28;19944;-76
2022/11/11 08:25:01;;;;;;;;;;;11.00;99.90;;;;;;5046509;28;19924;-75
2022/11/11 08:27:26;;;;;;;;;;;10.90;99.90;;;;;;5046012;28;19979;-76
2022/11/11 08:29:52;;;;;;;;;;;11.00;99.90;;;;;;5120436;23;19916;-76
2022/11/11 08:32:17;;;;;;;;;;;11.10;99.90;;;;;;5025762;28;19924;-76
2022/11/11 08:34:42;;;;;;;;;;;11.10;99.90;;;;;;5025243;28;20019;-76
2022/11/11 08:37:08;;;;;;;;;;;11.20;99.90;;;;;;5024079;28;19914;-76
2022/11/11 08:39:33;;;;;;;;;;;11.30;99.90;;;;;;5023685;28;19913;-75
2022/11/11 08:41:59;;;;;;;;;;;11.40;99.90;;;;;;5027221;28;20000;-75
2022/11/11 08:44:24;;;;;;;;;;;11.50;99.90;;;;;;5025756;28;20000;-77
2022/11/11 08:46:49;;;;;;;;;;;11.70;99.90;;;;;;5025660;28;19913;-78
2022/11/11 08:49:15;;;;;;;;;;;11.80;99.90;;;;;;5027200;28;19913;-78
2022/11/11 08:51:40;;;;;;;;;;;12.00;99.90;;;;;;5027355;28;19975;-77
2022/11/11 08:54:06;;;;;;;;;;;12.00;99.90;;;;;;5031077;28;20992;-78
2022/11/11 08:56:31;;;;;;;;;;;11.90;99.90;;;;;;5030109;28;19917;-75
2022/11/11 08:58:56;;;;;;;;;;;12.20;99.90;;;;;;5028758;28;19917;-80
2022/11/11 09:01:22;;;;;;;;;;;12.40;99.90;;;;;;5030269;28;19913;-78
2022/11/11 09:03:47;;;;;;;;;;;12.50;99.90;;;;;;5027647;28;19975;-77
2022/11/11 09:06:13;;;;;;;;;;;12.70;99.90;;;;;;5029596;28;19978;-76
2022/11/11 09:08:40;;;;;;;;;;;12.90;99.90;;;;;;5023072;28;19917;-76
2022/11/11 09:11:05;;;;;;;;;;;13.20;99.90;;;;;;5027694;28;20364;-76
2022/11/11 09:13:31;;;;;;;;;;;13.40;99.90;;;;;;5026154;28;19909;-76
2022/11/11 09:15:58;;;;;;;;;;;13.50;99.90;;;;;;5030751;28;19957;-76
2022/11/11 09:18:24;;;;;;;;;;;13.50;99.90;;;;;;5029554;28;19948;-75
2022/11/11 09:20:49;;;;;;;;;;;13.40;99.90;;;;;;5037143;28;19975;-73
2022/11/11 09:23:14;;;;;;;;;;;13.30;99.90;;;;;;5021084;28;20443;-76
2022/11/11 09:25:40;;;;;;;;;;;13.30;99.90;;;;;;5018569;28;19925;-77
2022/11/11 09:28:06;;;;;;;;;;;13.20;99.90;;;;;;5028823;28;19913;-76
2022/11/11 09:30:32;;;;;;;;;;;13.10;99.90;;;;;;5028261;28;19917;-76
2022/11/11 09:33:00;;;;;;;;;;;13.10;99.90;;;;;;5025172;28;19928;-76
2022/11/11 09:35:25;;;;;;;;;;;13.10;99.90;;;;;;5015032;28;19918;-76
2022/11/11 09:37:54;;;;;;;;;;;13.10;99.90;;;;;;5026540;28;19917;-75
2022/11/11 09:40:21;;;;;;;;;;;13.00;99.90;;;;;;5030455;28;19909;-75
2022/11/11 09:42:53;;;;;;;;;;;13.10;99.90;;;;;;5028003;28;20574;-75
2022/11/11 09:45:41;;;;;;;;;;;13.10;99.90;;;;;;5013505;28;20012;-76
2022/11/11 09:48:19;;;;;;;;;;;13.10;99.90;;;;;;5000347;28;20012;-76
2022/11/11 09:50:52;;;;;;;;;;;13.10;99.90;;;;;;5017117;28;19917;-76
2022/11/11 09:53:23;;;;;;;;;;;13.20;99.90;;;;;;5015672;28;19928;-76
2022/11/11 09:55:51;;;;;;;;;;;13.10;99.90;;;;;;5030142;28;19913;-76
2022/11/11 09:58:19;;;;;;;;;;;13.20;99.90;;;;;;5015118;28;20008;-76
2022/11/11 10:00:47;;;;;;;;;;;13.40;99.90;;;;;;5018288;28;19913;-76
2022/11/11 10:03:25;;;;;;;;;;;13.50;99.90;;;;;;5018554;28;20601;-76
2022/11/11 10:05:56;;;;;;;;;;;13.50;99.90;;;;;;5029676;28;19959;-76
2022/11/11 10:08:25;;;;;;;;;;;13.60;99.90;;;;;;5019132;28;19913;-77
2022/11/11 10:10:52;;;;;;;;;;;13.50;99.80;;;;;;5001984;28;19968;-76
2022/11/11 10:13:37;;;;;;;;;;;13.70;99.60;;;;;;5008109;28;19959;-76
2022/11/11 10:16:09;;;;;;;;;;;13.80;99.20;;;;;;4998351;28;20020;-76
2022/11/11 10:18:53;;;;;;;;;;;14.00;98.20;;;;;;5011781;28;19913;-76
2022/11/11 10:21:23;;;;;;;;;;;13.90;98.70;;;;;;5004120;28;19914;-76
2022/11/11 10:23:50;;;;;;;;;;;14.10;97.70;;;;;;4998362;28;19921;-76
2022/11/11 10:26:20;;;;;;;;;;;13.90;97.50;;;;;;5009066;28;20384;-76
2022/11/11 10:28:46;;;;;;;;;;;14.10;97.30;;;;;;5000172;28;21082;-75
2022/11/11 10:31:15;;;;;;;;;;;14.30;96.60;;;;;;5013532;28;20009;-75
2022/11/11 10:34:01;;;;;;;;;;;14.40;96.00;;;;;;5017236;28;19918;-75
2022/11/11 10:36:28;;;;;;;;;;;14.40;95.90;;;;;;5000004;28;19920;-76
2022/11/11 10:39:01;;;;;;;;;;;14.30;95.70;;;;;;5001404;28;19914;-76
2022/11/11 10:41:32;;;;;;;;;;;14.40;95.80;;;;;;5002302;28;20283;-75
2022/11/11 10:43:58;;;;;;;;;;;14.60;95.10;;;;;;5005964;28;19948;-78
2022/11/11 10:46:23;;;;;;;;;;;14.60;95.10;;;;;;5000610;28;20281;-76
2022/11/11 10:48:48;;;;;;;;;;;14.50;95.40;;;;;;5006825;28;19924;-76
2022/11/11 10:51:15;;;;;;;;;;;14.60;95.40;;;;;;5005654;28;19913;-76
2022/11/11 10:53:47;;;;;;;;;;;14.80;95.40;;;;;;5007886;28;19917;-76
2022/11/11 10:56:18;;;;;;;;;;;14.90;94.30;;;;;;5010027;28;19910;-76
2022/11/11 10:58:53;;;;;;;;;;;14.90;94.10;;;;;;5019933;28;20508;-76
2022/11/11 11:01:21;;;;;;;;;;;14.80;94.70;;;;;;5010800;28;19913;-76
2022/11/11 11:03:49;;;;;;;;;;;14.80;94.50;;;;;;5010266;28;20366;-77
2022/11/11 11:06:28;;;;;;;;;;;14.90;94.60;;;;;;5013014;28;20275;-74
2022/11/11 11:09:13;;;;;;;;;;;14.80;93.90;;;;;;5010214;28;19922;-75
2022/11/11 11:11:45;;;;;;;;;;;14.70;93.90;;;;;;5012508;28;19921;-74
2022/11/11 11:14:29;;;;;;;;;;;14.90;93.80;;;;;;5018494;28;19967;-74
2022/11/11 11:16:57;;;;;;;;;;;14.80;93.90;;;;;;5025918;28;20391;-74
2022/11/11 11:19:24;;;;;;;;;;;14.70;93.70;;;;;;5026429;28;19909;-74
2022/11/11 11:21:55;;;;;;;;;;;14.80;93.30;;;;;;5016784;28;20273;-73
2022/11/11 11:24:24;;;;;;;;;;;14.80;92.90;;;;;;5005889;28;19924;-74
2022/11/11 11:26:51;;;;;;;;;;;14.90;92.80;;;;;;5008288;28;19914;-74
2022/11/11 11:29:25;;;;;;;;;;;15.00;92.20;;;;;;5011507;28;19935;-74
2022/11/11 11:31:51;;;;;;;;;;;14.90;92.30;;;;;;5027684;28;20331;-74
2022/11/11 11:34:16;;;;;;;;;;;14.90;92.20;;;;;;5027825;28;19909;-74
2022/11/11 11:36:41;;;;;;;;;;;14.80;92.10;;;;;;5007685;28;19914;-74
2022/11/11 11:39:07;;;;;;;;;;;15.20;91.50;;;;;;5023193;28;19916;-75
2022/11/11 11:41:37;;;;;;;;;;;15.60;91.20;;;;;;5027472;28;20269;-75
2022/11/11 11:44:02;;;;;;;;;;;15.50;90.20;;;;;;5027941;28;20012;-75
2022/11/11 11:46:39;;;;;;;;;;;15.70;90.10;;;;;;5020966;28;20008;-74
2022/11/11 11:49:23;;;;;;;;;;;15.90;89.70;;;;;;5026500;28;19915;-74
2022/11/11 11:51:55;;;;;;;;;;;15.70;89.30;;;;;;5009723;28;20032;-75
2022/11/11 11:54:39;;;;;;;;;;;15.80;88.90;;;;;;5027617;28;20428;-74
2022/11/11 11:57:15;;;;;;;;;;;15.80;89.60;;;;;;5027634;28;19971;-75
2022/11/11 11:59:45;;;;;;;;;;;16.00;88.30;;;;;;5027459;28;20360;-75
2022/11/11 12:02:49;;;;;;;;;;;15.90;88.50;;;;;;5010900;28;19932;-72
2022/11/11 12:05:24;;;;;;;;;;;15.50;89.10;;;;;;5001414;28;19917;-74
2022/11/11 12:07:59;;;;;;;;;;;15.40;89.20;;;;;;5015595;28;20063;-74
2022/11/11 12:10:27;;;;;;;;;;;15.10;90.00;;;;;;5015912;28;19909;-74
2022/11/11 12:12:53;;;;;;;;;;;14.90;90.70;;;;;;5027198;28;20281;-75
2022/11/11 12:15:21;;;;;;;;;;;15.00;90.50;;;;;;5027805;28;19928;-74
2022/11/11 12:17:52;;;;;;;;;;;15.20;90.50;;;;;;5022257;28;19976;-74
2022/11/11 12:20:31;;;;;;;;;;;15.30;89.30;;;;;;5004607;28;20406;-75
2022/11/11 12:23:03;;;;;;;;;;;15.60;88.70;;;;;;5025579;28;20365;-75
2022/11/11 12:25:35;;;;;;;;;;;16.00;87.20;;;;;;5030761;28;19983;-75
2022/11/11 12:28:09;;;;;;;;;;;16.30;86.20;;;;;;5013340;28;19913;-75
2022/11/11 12:30:36;;;;;;;;;;;16.70;83.80;;;;;;5018207;28;19963;-75
2022/11/11 12:33:10;;;;;;;;;;;16.70;82.80;;;;;;5031404;28;19909;-74
2022/11/11 12:35:47;;;;;;;;;;;16.60;82.70;;;;;;5031224;28;19909;-75
2022/11/11 12:38:22;;;;;;;;;;;16.70;83.50;;;;;;5031175;28;20003;-74
2022/11/11 12:41:06;;;;;;;;;;;16.70;82.30;;;;;;5026594;28;20043;-75
2022/11/11 12:43:44;;;;;;;;;;;16.70;81.10;;;;;;5024828;28;19913;-74
2022/11/11 12:46:24;;;;;;;;;;;17.00;81.60;;;;;;5031275;28;19968;-75
2022/11/11 12:48:55;;;;;;;;;;;17.00;79.50;;;;;;5029085;28;19917;-75
2022/11/11 12:51:30;;;;;;;;;;;16.90;79.80;;;;;;5012733;28;19928;-74
2022/11/11 12:54:02;;;;;;;;;;;16.90;79.60;;;;;;5016391;28;19920;-74
2022/11/11 12:56:46;;;;;;;;;;;16.80;79.30;;;;;;5017164;28;19909;-74
2022/11/11 12:59:18;;;;;;;;;;;16.80;80.20;;;;;;5020789;28;19920;-75
2022/11/11 13:01:54;;;;;;;;;;;16.00;83.10;;;;;;5020515;28;20000;-74
2022/11/11 13:04:28;;;;;;;;;;;15.80;84.10;;;;;;5000879;28;20452;-74
2022/11/11 13:07:07;;;;;;;;;;;15.30;85.40;;;;;;5030353;28;19914;-74
2022/11/11 13:10:01;;;;;;;;;;;15.10;87.20;;;;;;5030708;28;20436;-75
2022/11/11 13:12:34;;;;;;;;;;;15.10;87.50;;;;;;5030721;28;19955;-74
2022/11/11 13:15:09;;;;;;;;;;;15.10;88.10;;;;;;5005795;28;19905;-75
2022/11/11 13:17:36;;;;;;;;;;;15.00;88.10;;;;;;5012189;28;20594;-74
2022/11/11 13:20:04;;;;;;;;;;;14.70;89.30;;;;;;5021560;28;19909;-74
2022/11/11 13:22:31;;;;;;;;;;;14.50;89.40;;;;;;5024633;28;19948;-75
2022/11/11 13:24:57;;;;;;;;;;;14.50;89.70;;;;;;5030424;28;19917;-74
2022/11/11 13:27:40;;;;;;;;;;;14.60;90.00;;;;;;5018219;28;20020;-75
2022/11/11 13:30:06;;;;;;;;;;;14.50;90.10;;;;;;5018112;28;20006;-74
2022/11/11 13:32:35;;;;;;;;;;;14.50;90.00;;;;;;5030222;28;20337;-75
2022/11/11 13:35:01;;;;;;;;;;;14.20;90.60;;;;;;5029521;28;19914;-75
2022/11/11 13:37:28;;;;;;;;;;;14.30;90.70;;;;;;5029181;28;20376;-75
2022/11/11 13:40:03;;;;;;;;;;;14.20;90.80;;;;;;5020826;28;20011;-74
2022/11/11 13:42:35;;;;;;;;;;;14.20;91.20;;;;;;5029879;28;19920;-75
2022/11/11 13:45:02;;;;;;;;;;;14.20;91.20;;;;;;5029892;28;19975;-74
2022/11/11 13:47:36;;;;;;;;;;;14.20;91.20;;;;;;5029828;28;19916;-75
2022/11/11 13:50:04;;;;;;;;;;;13.90;91.50;;;;;;5015866;28;19949;-74
2022/11/11 13:52:29;;;;;;;;;;;13.90;91.80;;;;;;5030012;28;19910;-75
2022/11/11 13:55:02;;;;;;;;;;;13.80;92.00;;;;;;5023501;28;19924;-75
2022/11/11 13:57:30;;;;;;;;;;;13.80;92.10;;;;;;5029593;28;20232;-74
2022/11/11 14:00:22;;;;;;;;;;;13.90;92.30;;;;;;5029286;28;20416;-74
2022/11/11 14:03:07;;;;;;;;;;;13.80;92.30;;;;;;5029546;28;19921;-75
2022/11/11 14:05:32;;;;;;;;;;;13.70;92.50;;;;;;5001460;28;20008;-74
2022/11/11 14:07:58;;;;;;;;;;;13.70;92.70;;;;;;5012216;28;20004;-75
2022/11/11 14:10:24;;;;;;;;;;;13.70;92.60;;;;;;5016476;28;20052;-74
2022/11/11 14:12:56;;;;;;;;;;;13.70;93.10;;;;;;5005457;28;20433;-75
2022/11/11 14:15:33;;;;;;;;;;;13.60;92.40;;;;;;5010051;28;19909;-74
2022/11/11 14:17:58;;;;;;;;;;;13.60;92.70;;;;;;5006658;28;19918;-74
2022/11/11 14:20:36;;;;;;;;;;;13.50;92.90;;;;;;5007858;28;20509;-75
2022/11/11 14:23:17;;;;;;;;;;;13.50;93.10;;;;;;5015098;28;19909;-74
2022/11/11 14:25:49;;;;;;;;;;;13.50;93.40;;;;;;5028170;28;20360;-75
2022/11/11 14:28:28;;;;;;;;;;;13.50;93.50;;;;;;5012599;28;20443;-75
2022/11/11 14:30:54;;;;;;;;;;;13.40;93.90;;;;;;5010110;28;19936;-74
2022/11/11 14:33:38;;;;;;;;;;;13.40;94.30;;;;;;5011388;28;19914;-75
2022/11/11 14:36:20;;;;;;;;;;;13.40;94.00;;;;;;5009451;28;19996;-75
2022/11/11 14:38:54;;;;;;;;;;;13.20;94.60;;;;;;5006530;28;19925;-76
2022/11/11 14:41:41;;;;;;;;;;;13.10;94.90;;;;;;4999230;28;19909;-75
2022/11/11 14:44:25;;;;;;;;;;;13.00;95.00;;;;;;5009860;28;20008;-76
2022/11/11 14:47:26;;;;;;;;;;;12.90;95.70;;;;;;5006447;28;20313;-76
2022/11/11 14:49:53;;;;;;;;;;;12.80;95.80;;;;;;5006772;28;20012;-75
2022/11/11 14:52:25;;;;;;;;;;;12.80;96.10;;;;;;5004831;28;19913;-77
2022/11/11 14:54:53;;;;;;;;;;;12.70;96.70;;;;;;5005007;28;19996;-77
2022/11/11 14:57:23;;;;;;;;;;;12.60;96.80;;;;;;5021705;28;19914;-77
2022/11/11 14:59:49;;;;;;;;;;;12.50;97.20;;;;;;5007647;28;20034;-76
2022/11/11 15:02:21;;;;;;;;;;;12.50;97.70;;;;;;5000143;28;20131;-77
2022/11/11 15:04:48;;;;;;;;;;;12.50;97.90;;;;;;5007205;28;19954;-77
2022/11/11 15:07:34;;;;;;;;;;;12.40;98.60;;;;;;5014506;28;19937;-76
2022/11/11 15:09:59;;;;;;;;;;;12.20;99.00;;;;;;4976642;28;19913;-77
2022/11/11 15:12:43;;;;;;;;;;;12.10;99.50;;;;;;5009920;28;20306;-74
2022/11/11 15:15:09;;;;;;;;;;;12.10;99.80;;;;;;5007307;28;19917;-76
2022/11/11 15:17:41;;;;;;;;;;;12.00;99.90;;;;;;5006682;28;20012;-77
2022/11/11 15:20:25;;;;;;;;;;;11.90;99.90;;;;;;5006222;28;19955;-75
2022/11/11 15:23:02;;;;;;;;;;;11.80;99.90;;;;;;5008469;28;19919;-77
2022/11/11 15:25:47;;;;;;;;;;;11.80;99.90;;;;;;5008634;28;20336;-77
2022/11/11 15:28:26;;;;;;;;;;;11.80;99.90;;;;;;5008172;28;21186;-77
2022/11/11 15:31:12;;;;;;;;;;;11.80;99.90;;;;;;5002641;28;19925;-76
2022/11/11 15:33:42;;;;;;;;;;;11.80;99.90;;;;;;5007195;28;19957;-77
2022/11/11 15:36:19;;;;;;;;;;;11.70;99.90;;;;;;5013792;28;19917;-77
2022/11/11 15:38:44;;;;;;;;;;;11.50;99.90;;;;;;5011579;28;20377;-76
2022/11/11 15:41:23;;;;;;;;;;;11.40;99.90;;;;;;5010359;28;19913;-77
2022/11/11 15:43:49;;;;;;;;;;;11.30;99.90;;;;;;5010089;28;19910;-76
2022/11/11 15:46:23;;;;;;;;;;;11.20;99.90;;;;;;5006912;28;19920;-77
2022/11/11 15:48:50;;;;;;;;;;;11.20;99.90;;;;;;5003817;28;19955;-76
2022/11/11 15:51:16;;;;;;;;;;;11.20;99.90;;;;;;4997515;28;19914;-77
2022/11/11 15:53:41;;;;;;;;;;;11.20;99.90;;;;;;5004424;28;19945;-77